createdAt,value
2023-04-16T00:00:44.938Z,0.00
2023-04-16T00:01:44.743Z,0.00
2023-04-16T00:02:44.800Z,0.00
2023-04-16T00:03:44.821Z,0.00
2023-04-16T00:04:44.857Z,0.00
2023-04-16T00:05:44.706Z,0.00
2023-04-16T00:06:44.666Z,0.00
2023-04-16T00:07:44.668Z,0.00
2023-04-16T00:08:44.647Z,0.00
2023-04-16T00:09:44.639Z,0.00
2023-04-16T00:10:44.653Z,0.00
2023-04-16T00:11:44.608Z,0.00
2023-04-16T00:12:44.592Z,0.00
2023-04-16T00:13:44.578Z,0.00
2023-04-16T00:14:44.557Z,0.00
2023-04-16T00:15:44.587Z,0.00
2023-04-16T00:16:44.594Z,0.00
2023-04-16T00:17:44.559Z,0.00
2023-04-16T00:18:44.522Z,0.00
2023-04-16T00:19:44.498Z,0.00
2023-04-16T00:20:44.528Z,0.00
2023-04-16T00:21:44.485Z,0.00
2023-04-16T00:22:44.463Z,0.00
2023-04-16T00:23:44.452Z,0.00
2023-04-16T00:24:44.431Z,0.00
2023-04-16T00:25:44.451Z,0.00
2023-04-16T00:26:44.408Z,0.00
2023-04-16T00:27:44.399Z,0.00
2023-04-16T00:28:44.380Z,0.00
2023-04-16T00:29:44.383Z,0.00
2023-04-16T00:30:44.385Z,0.00
2023-04-16T00:31:44.346Z,0.00
2023-04-16T00:32:44.353Z,0.00
2023-04-16T00:33:44.315Z,0.00
2023-04-16T00:34:44.313Z,0.00
2023-04-16T00:35:44.313Z,0.00
2023-04-16T00:36:44.270Z,0.00
2023-04-16T00:37:44.280Z,0.00
2023-04-16T00:38:44.245Z,0.00
2023-04-16T00:39:44.239Z,0.00
2023-04-16T00:40:44.246Z,0.00
2023-04-16T00:41:44.215Z,0.00
2023-04-16T00:42:44.194Z,0.00
2023-04-16T00:43:44.203Z,0.00
2023-04-16T00:44:44.175Z,0.00
2023-04-16T00:45:44.178Z,0.00
2023-04-16T00:46:44.302Z,0.00
2023-04-16T00:47:44.184Z,0.00
2023-04-16T00:48:44.120Z,0.00
2023-04-16T00:49:44.114Z,0.00
2023-04-16T00:50:44.108Z,0.00
2023-04-16T00:51:44.091Z,0.00
2023-04-16T00:52:44.078Z,0.00
2023-04-16T00:53:44.056Z,0.00
2023-04-16T00:54:44.040Z,0.00
2023-04-16T00:55:44.073Z,0.00
2023-04-16T00:56:44.025Z,0.00
2023-04-16T00:57:44.001Z,0.00
2023-04-16T00:58:43.981Z,0.00
2023-04-16T00:59:43.984Z,0.00
2023-04-16T01:00:43.956Z,0.00
2023-04-16T01:01:43.990Z,0.00
2023-04-16T01:02:44.054Z,0.00
2023-04-16T01:03:44.019Z,0.00
2023-04-16T01:04:43.905Z,0.00
2023-04-16T01:05:43.901Z,0.00
2023-04-16T01:06:43.911Z,0.00
2023-04-16T01:07:43.886Z,0.00
2023-04-16T01:08:43.873Z,0.00
2023-04-16T01:09:43.858Z,0.00
2023-04-16T01:10:43.830Z,0.00
2023-04-16T01:11:43.840Z,0.00
2023-04-16T01:12:43.801Z,0.00
2023-04-16T01:13:43.800Z,0.00
2023-04-16T01:14:43.778Z,0.00
2023-04-16T01:15:43.818Z,0.00
2023-04-16T01:16:43.767Z,0.00
2023-04-16T01:17:43.769Z,0.00
2023-04-16T01:18:43.725Z,0.00
2023-04-16T01:19:43.721Z,0.00
2023-04-16T01:20:43.719Z,0.00
2023-04-16T01:21:43.710Z,0.00
2023-04-16T01:22:43.675Z,0.00
2023-04-16T01:23:43.663Z,0.00
2023-04-16T01:24:43.654Z,0.00
2023-04-16T01:25:43.633Z,0.00
2023-04-16T01:26:43.651Z,0.00
2023-04-16T01:27:43.653Z,0.00
2023-04-16T01:28:43.614Z,0.00
2023-04-16T01:29:43.584Z,0.00
2023-04-16T01:30:43.601Z,0.00
2023-04-16T01:31:43.641Z,0.00
2023-04-16T01:32:43.569Z,0.00
2023-04-16T01:33:43.541Z,0.00
2023-04-16T01:34:43.524Z,0.00
2023-04-16T01:35:43.518Z,0.00
2023-04-16T01:36:43.509Z,0.00
2023-04-16T01:37:43.486Z,0.00
2023-04-16T01:38:43.469Z,0.00
2023-04-16T01:39:43.457Z,0.00
2023-04-16T01:40:43.441Z,0.00
2023-04-16T01:41:43.455Z,0.00
2023-04-16T01:42:43.416Z,0.00
2023-04-16T01:43:43.410Z,0.00
2023-04-16T01:44:43.381Z,0.00
2023-04-16T01:45:43.388Z,0.00
2023-04-16T01:46:43.465Z,0.00
2023-04-16T01:47:43.387Z,0.00
2023-04-16T01:48:43.360Z,0.00
2023-04-16T01:49:43.323Z,0.00
2023-04-16T01:50:43.314Z,0.00
2023-04-16T01:51:43.327Z,0.00
2023-04-16T01:52:43.277Z,0.00
2023-04-16T01:53:43.265Z,0.00
2023-04-16T01:54:43.263Z,0.00
2023-04-16T01:55:43.241Z,0.00
2023-04-16T01:56:43.257Z,0.00
2023-04-16T01:57:43.226Z,0.00
2023-04-16T01:58:43.208Z,0.00
2023-04-16T01:59:43.205Z,0.00
2023-04-16T02:00:43.221Z,0.00
2023-04-16T02:01:43.191Z,0.00
2023-04-16T02:02:43.262Z,0.00
2023-04-16T02:03:43.226Z,0.00
2023-04-16T02:04:43.133Z,0.00
2023-04-16T02:05:49.173Z,0.00
2023-04-16T02:06:43.117Z,0.00
2023-04-16T02:07:43.107Z,0.00
2023-04-16T02:08:43.082Z,0.00
2023-04-16T02:09:43.074Z,0.00
2023-04-16T02:10:43.089Z,0.00
2023-04-16T02:11:43.058Z,0.00
2023-04-16T02:12:43.058Z,0.00
2023-04-16T02:13:43.039Z,0.00
2023-04-16T02:14:43.015Z,0.00
2023-04-16T02:15:42.998Z,0.00
2023-04-16T02:16:43.044Z,0.00
2023-04-16T02:17:43.018Z,0.00
2023-04-16T02:18:43.007Z,0.00
2023-04-16T02:19:42.927Z,0.00
2023-04-16T02:20:42.935Z,0.00
2023-04-16T02:21:42.930Z,0.00
2023-04-16T02:22:42.940Z,0.00
2023-04-16T02:23:42.883Z,0.00
2023-04-16T02:24:42.881Z,0.00
2023-04-16T02:25:42.915Z,0.00
2023-04-16T02:26:42.870Z,0.00
2023-04-16T02:27:42.833Z,0.00
2023-04-16T02:28:42.846Z,0.00
2023-04-16T02:29:42.848Z,0.00
2023-04-16T02:30:42.816Z,0.00
2023-04-16T02:31:42.870Z,0.00
2023-04-16T02:32:42.824Z,0.00
2023-04-16T02:33:42.740Z,0.00
2023-04-16T02:34:42.754Z,0.00
2023-04-16T02:35:42.740Z,0.00
2023-04-16T02:36:42.735Z,0.00
2023-04-16T02:37:42.696Z,0.00
2023-04-16T02:38:42.748Z,0.00
2023-04-16T02:39:42.693Z,0.00
2023-04-16T02:40:42.664Z,0.00
2023-04-16T02:41:42.695Z,0.00
2023-04-16T02:42:42.658Z,0.00
2023-04-16T02:43:42.620Z,0.00
2023-04-16T02:44:42.644Z,0.00
2023-04-16T02:45:42.624Z,0.00
2023-04-16T02:46:42.588Z,0.00
2023-04-16T02:47:42.668Z,0.00
2023-04-16T02:48:42.564Z,0.00
2023-04-16T02:49:42.552Z,0.00
2023-04-16T02:50:42.570Z,0.00
2023-04-16T02:51:42.515Z,0.00
2023-04-16T02:52:42.537Z,0.00
2023-04-16T02:53:42.487Z,0.00
2023-04-16T02:54:42.515Z,0.00
2023-04-16T02:55:42.472Z,0.00
2023-04-16T02:56:42.467Z,0.00
2023-04-16T02:57:42.725Z,0.00
2023-04-16T02:58:42.462Z,0.00
2023-04-16T02:59:42.405Z,0.00
2023-04-16T03:00:42.394Z,0.00
2023-04-16T03:01:42.546Z,0.00
2023-04-16T03:02:42.584Z,0.00
2023-04-16T03:03:42.366Z,0.00
2023-04-16T03:04:42.382Z,0.00
2023-04-16T03:05:42.368Z,0.00
2023-04-16T03:06:42.332Z,0.00
2023-04-16T03:07:42.346Z,0.00
2023-04-16T03:08:42.305Z,0.00
2023-04-16T03:09:42.312Z,0.00
2023-04-16T03:10:42.266Z,0.00
2023-04-16T03:11:42.254Z,0.00
2023-04-16T03:12:42.281Z,0.00
2023-04-16T03:13:42.223Z,0.00
2023-04-16T03:14:42.215Z,0.00
2023-04-16T03:15:42.246Z,0.00
2023-04-16T03:16:42.184Z,0.00
2023-04-16T03:17:42.234Z,0.00
2023-04-16T03:18:42.193Z,0.00
2023-04-16T03:19:42.155Z,0.00
2023-04-16T03:20:42.136Z,0.00
2023-04-16T03:21:42.127Z,0.00
2023-04-16T03:22:42.188Z,0.00
2023-04-16T03:23:42.123Z,0.00
2023-04-16T03:24:42.131Z,0.00
2023-04-16T03:25:42.090Z,0.00
2023-04-16T03:26:42.063Z,0.00
2023-04-16T03:27:42.108Z,0.00
2023-04-16T03:28:42.068Z,0.00
2023-04-16T03:29:42.024Z,0.00
2023-04-16T03:30:42.020Z,0.00
2023-04-16T03:31:42.064Z,0.00
2023-04-16T03:32:42.095Z,0.00
2023-04-16T03:33:41.969Z,0.00
2023-04-16T03:34:42.025Z,0.00
2023-04-16T03:35:41.960Z,0.00
2023-04-16T03:36:41.941Z,0.00
2023-04-16T03:37:41.963Z,0.00
2023-04-16T03:38:41.909Z,0.00
2023-04-16T03:39:41.890Z,0.00
2023-04-16T03:40:41.903Z,0.00
2023-04-16T03:41:41.895Z,0.00
2023-04-16T03:42:42.006Z,0.00
2023-04-16T03:43:41.856Z,0.00
2023-04-16T03:44:41.828Z,0.00
2023-04-16T03:45:41.814Z,0.00
2023-04-16T03:46:41.865Z,0.00
2023-04-16T03:47:41.806Z,0.00
2023-04-16T03:48:41.834Z,0.00
2023-04-16T03:49:41.775Z,0.00
2023-04-16T03:50:41.748Z,0.00
2023-04-16T03:51:41.737Z,0.00
2023-04-16T03:52:41.746Z,0.00
2023-04-16T03:53:41.755Z,0.00
2023-04-16T03:54:41.729Z,0.00
2023-04-16T03:55:41.712Z,0.00
2023-04-16T03:56:41.696Z,0.00
2023-04-16T03:57:41.700Z,0.00
2023-04-16T03:58:41.642Z,0.00
2023-04-16T03:59:41.632Z,0.00
2023-04-16T04:00:41.652Z,0.00
2023-04-16T04:01:41.653Z,0.00
2023-04-16T04:02:41.840Z,0.00
2023-04-16T04:03:41.818Z,0.00
2023-04-16T04:04:41.657Z,0.00
2023-04-16T04:05:41.548Z,0.00
2023-04-16T04:06:41.569Z,0.00
2023-04-16T04:07:41.555Z,0.00
2023-04-16T04:08:41.515Z,0.00
2023-04-16T04:09:41.463Z,1.00
2023-04-16T04:10:41.444Z,1.00
2023-04-16T04:11:41.422Z,1.00
2023-04-16T04:12:41.435Z,1.00
2023-04-16T04:13:41.396Z,2.00
2023-04-16T04:14:41.400Z,2.00
2023-04-16T04:15:41.371Z,2.00
2023-04-16T04:16:41.477Z,3.00
2023-04-16T04:17:41.402Z,3.00
2023-04-16T04:18:42.180Z,4.00
2023-04-16T04:19:47.120Z,3.00
2023-04-16T04:20:41.332Z,3.00
2023-04-16T04:21:41.307Z,8.00
2023-04-16T04:22:41.318Z,5.00
2023-04-16T04:23:41.284Z,10.00
2023-04-16T04:24:41.300Z,11.00
2023-04-16T04:25:41.247Z,10.00
2023-04-16T04:26:41.266Z,10.00
2023-04-16T04:27:41.249Z,16.00
2023-04-16T04:28:41.211Z,14.00
2023-04-16T04:29:41.184Z,15.00
2023-04-16T04:30:41.196Z,19.00
2023-04-16T04:31:41.238Z,20.00
2023-04-16T04:32:41.216Z,25.00
2023-04-16T04:33:41.140Z,25.00
2023-04-16T04:34:41.154Z,23.00
2023-04-16T04:35:41.114Z,19.00
2023-04-16T04:36:41.092Z,21.00
2023-04-16T04:37:41.142Z,19.00
2023-04-16T04:38:41.088Z,28.00
2023-04-16T04:39:41.072Z,32.00
2023-04-16T04:40:41.055Z,35.00
2023-04-16T04:41:41.032Z,41.00
2023-04-16T04:42:41.067Z,49.00
2023-04-16T04:43:41.030Z,47.00
2023-04-16T04:44:41.001Z,53.00
2023-04-16T04:45:41.039Z,58.00
2023-04-16T04:46:40.953Z,65.00
2023-04-16T04:47:41.011Z,55.00
2023-04-16T04:48:40.964Z,68.00
2023-04-16T04:49:40.923Z,69.00
2023-04-16T04:50:40.926Z,66.00
2023-04-16T04:51:40.904Z,74.00
2023-04-16T04:52:40.921Z,77.00
2023-04-16T04:53:40.888Z,88.00
2023-04-16T04:54:40.873Z,111.00
2023-04-16T04:55:40.843Z,112.00
2023-04-16T04:56:40.836Z,129.00
2023-04-16T04:57:40.826Z,161.00
2023-04-16T04:58:40.833Z,179.00
2023-04-16T04:59:40.800Z,158.00
2023-04-16T05:00:40.798Z,174.00
2023-04-16T05:01:40.797Z,174.00
2023-04-16T05:02:40.893Z,192.00
2023-04-16T05:03:40.850Z,211.00
2023-04-16T05:04:40.767Z,234.00
2023-04-16T05:05:40.732Z,242.00
2023-04-16T05:06:40.707Z,247.00
2023-04-16T05:07:40.707Z,253.00
2023-04-16T05:08:40.693Z,275.00
2023-04-16T05:09:40.686Z,311.00
2023-04-16T05:10:40.665Z,294.00
2023-04-16T05:11:40.640Z,266.00
2023-04-16T05:12:40.670Z,232.00
2023-04-16T05:13:40.608Z,282.00
2023-04-16T05:14:40.593Z,345.00
2023-04-16T05:15:40.603Z,295.00
2023-04-16T05:16:40.648Z,286.00
2023-04-16T05:17:40.603Z,374.00
2023-04-16T05:18:40.586Z,422.00
2023-04-16T05:19:40.529Z,507.00
2023-04-16T05:20:40.537Z,536.00
2023-04-16T05:21:40.533Z,504.00
2023-04-16T05:22:40.541Z,486.00
2023-04-16T05:23:40.515Z,487.00
2023-04-16T05:24:40.479Z,701.00
2023-04-16T05:25:40.482Z,651.00
2023-04-16T05:26:40.471Z,598.00
2023-04-16T05:27:40.470Z,572.00
2023-04-16T05:28:40.430Z,591.00
2023-04-16T05:29:40.403Z,687.00
2023-04-16T05:30:40.444Z,677.00
2023-04-16T05:31:40.387Z,736.00
2023-04-16T05:32:40.494Z,780.00
2023-04-16T05:33:40.368Z,692.00
2023-04-16T05:34:40.335Z,781.00
2023-04-16T05:35:40.329Z,793.00
2023-04-16T05:36:40.305Z,783.00
2023-04-16T05:37:40.324Z,771.00
2023-04-16T05:38:40.304Z,699.00
2023-04-16T05:39:40.287Z,631.00
2023-04-16T05:40:40.267Z,652.00
2023-04-16T05:41:40.234Z,639.00
2023-04-16T05:42:40.409Z,627.00
2023-04-16T05:43:40.209Z,649.00
2023-04-16T05:44:40.204Z,615.00
2023-04-16T05:45:40.205Z,577.00
2023-04-16T05:46:40.222Z,592.00
2023-04-16T05:47:40.260Z,693.00
2023-04-16T05:48:40.164Z,736.00
2023-04-16T05:49:40.146Z,723.00
2023-04-16T05:50:40.150Z,699.00
2023-04-16T05:51:40.106Z,624.00
2023-04-16T05:52:40.299Z,618.00
2023-04-16T05:53:40.114Z,647.00
2023-04-16T05:54:40.117Z,678.00
2023-04-16T05:55:40.115Z,623.00
2023-04-16T05:56:40.041Z,749.00
2023-04-16T05:57:40.081Z,861.00
2023-04-16T05:58:40.057Z,845.00
2023-04-16T05:59:39.999Z,802.00
2023-04-16T06:00:40.000Z,796.00
2023-04-16T06:01:39.983Z,890.00
2023-04-16T06:02:40.146Z,894.00
2023-04-16T06:03:40.040Z,938.00
2023-04-16T06:04:39.957Z,967.00
2023-04-16T06:05:40.006Z,906.00
2023-04-16T06:06:39.926Z,1057.00
2023-04-16T06:07:39.900Z,919.00
2023-04-16T06:08:39.938Z,819.00
2023-04-16T06:09:39.900Z,970.00
2023-04-16T06:10:39.990Z,1040.00
2023-04-16T06:11:39.869Z,959.00
2023-04-16T06:12:39.856Z,1254.00
2023-04-16T06:13:39.892Z,1548.00
2023-04-16T06:14:39.839Z,2070.00
2023-04-16T06:15:39.865Z,1922.00
2023-04-16T06:16:39.823Z,2029.00
2023-04-16T06:17:39.913Z,2276.00
2023-04-16T06:18:39.785Z,2186.00
2023-04-16T06:19:39.793Z,2058.00
2023-04-16T06:20:39.739Z,2460.00
2023-04-16T06:21:39.724Z,3190.00
2023-04-16T06:22:39.704Z,3071.00
2023-04-16T06:23:39.726Z,3092.00
2023-04-16T06:24:39.690Z,4053.00
2023-04-16T06:25:39.716Z,4086.00
2023-04-16T06:26:39.651Z,5000.00
2023-04-16T06:27:39.649Z,4864.00
2023-04-16T06:28:39.647Z,4755.00
2023-04-16T06:29:41.678Z,4369.00
2023-04-16T06:30:39.608Z,4702.00
2023-04-16T06:31:39.629Z,5022.00
2023-04-16T06:32:39.599Z,5077.00
2023-04-16T06:33:39.608Z,4491.00
2023-04-16T06:34:39.553Z,4819.00
2023-04-16T06:35:39.546Z,5476.00
2023-04-16T06:36:39.528Z,4797.00
2023-04-16T06:37:39.525Z,4574.00
2023-04-16T06:38:39.550Z,4708.00
2023-04-16T06:39:39.500Z,4799.00
2023-04-16T06:40:39.473Z,4743.00
2023-04-16T06:41:39.467Z,4139.00
2023-04-16T06:42:39.462Z,3650.00
2023-04-16T06:43:39.461Z,3495.00
2023-04-16T06:44:39.419Z,3585.00
2023-04-16T06:45:39.416Z,3686.00
2023-04-16T06:46:39.462Z,4119.00
2023-04-16T06:47:39.385Z,4007.00
2023-04-16T06:48:39.409Z,4494.00
2023-04-16T06:49:39.384Z,4978.00
2023-04-16T06:50:39.327Z,4736.00
2023-04-16T06:51:39.350Z,4820.00
2023-04-16T06:52:39.307Z,5391.00
2023-04-16T06:53:39.315Z,4644.00
2023-04-16T06:54:39.262Z,6081.00
2023-04-16T06:55:39.263Z,5488.00
2023-04-16T06:56:39.269Z,4762.00
2023-04-16T06:57:39.242Z,5422.00
2023-04-16T06:58:39.266Z,4799.00
2023-04-16T06:59:39.223Z,4513.00
2023-04-16T07:00:39.235Z,4665.00
2023-04-16T07:01:39.210Z,4739.00
2023-04-16T07:02:39.275Z,4240.00
2023-04-16T07:03:39.314Z,3856.00
2023-04-16T07:04:39.182Z,3385.00
2023-04-16T07:05:39.143Z,3158.00
2023-04-16T07:06:39.132Z,2901.00
2023-04-16T07:07:39.116Z,3158.00
2023-04-16T07:08:39.113Z,3209.00
2023-04-16T07:09:39.101Z,2686.00
2023-04-16T07:10:39.093Z,2382.00
2023-04-16T07:11:39.086Z,2360.00
2023-04-16T07:12:39.055Z,1965.00
2023-04-16T07:13:39.061Z,2050.00
2023-04-16T07:14:39.023Z,2696.00
2023-04-16T07:15:39.018Z,2374.00
2023-04-16T07:16:39.010Z,2173.00
2023-04-16T07:17:39.125Z,2797.00
2023-04-16T07:18:38.996Z,2513.00
2023-04-16T07:19:38.969Z,2665.00
2023-04-16T07:20:38.976Z,2663.00
2023-04-16T07:21:38.951Z,3126.00
2023-04-16T07:22:38.907Z,3214.00
2023-04-16T07:23:38.907Z,3672.00
2023-04-16T07:24:38.913Z,3407.00
2023-04-16T07:25:38.895Z,3749.00
2023-04-16T07:26:38.870Z,3345.00
2023-04-16T07:27:38.880Z,5113.00
2023-04-16T07:28:38.858Z,5723.00
2023-04-16T07:29:38.836Z,4967.00
2023-04-16T07:30:38.804Z,4908.00
2023-04-16T07:31:38.871Z,4421.00
2023-04-16T07:32:38.864Z,3745.00
2023-04-16T07:33:38.781Z,2909.00
2023-04-16T07:34:38.774Z,2953.00
2023-04-16T07:35:38.891Z,3028.00
2023-04-16T07:36:38.715Z,2984.00
2023-04-16T07:37:38.707Z,2459.00
2023-04-16T07:38:38.722Z,2469.00
2023-04-16T07:39:38.716Z,2784.00
2023-04-16T07:40:38.670Z,3283.00
2023-04-16T07:41:38.665Z,3217.00
2023-04-16T07:42:38.664Z,2836.00
2023-04-16T07:43:38.870Z,2325.00
2023-04-16T07:44:38.618Z,2198.00
2023-04-16T07:45:38.800Z,2114.00
2023-04-16T07:46:46.935Z,2076.00
2023-04-16T07:47:38.625Z,2413.00
2023-04-16T07:48:38.915Z,2512.00
2023-04-16T07:49:38.603Z,1946.00
2023-04-16T07:50:38.541Z,2072.00
2023-04-16T07:51:38.604Z,2304.00
2023-04-16T07:52:38.520Z,2384.00
2023-04-16T07:53:38.554Z,1952.00
2023-04-16T07:54:38.524Z,2138.00
2023-04-16T07:55:38.480Z,2202.00
2023-04-16T07:56:38.519Z,2392.00
2023-04-16T07:57:38.551Z,2301.00
2023-04-16T07:58:38.545Z,2646.00
2023-04-16T07:59:38.448Z,2612.00
2023-04-16T08:00:38.438Z,2544.00
2023-04-16T08:01:38.425Z,2739.00
2023-04-16T08:02:38.658Z,3506.00
2023-04-16T08:03:38.562Z,3576.00
2023-04-16T08:04:38.666Z,2469.00
2023-04-16T08:05:38.384Z,1996.00
2023-04-16T08:06:38.370Z,2025.00
2023-04-16T08:07:38.319Z,2135.00
2023-04-16T08:08:38.330Z,1877.00
2023-04-16T08:09:38.344Z,1846.00
2023-04-16T08:10:38.271Z,2045.00
2023-04-16T08:11:38.302Z,2520.00
2023-04-16T08:12:38.272Z,2774.00
2023-04-16T08:13:38.265Z,3234.00
2023-04-16T08:14:38.284Z,3120.00
2023-04-16T08:15:38.236Z,2997.00
2023-04-16T08:16:38.201Z,3024.00
2023-04-16T08:17:38.249Z,3347.00
2023-04-16T08:18:38.183Z,4192.00
2023-04-16T08:19:38.226Z,4737.00
2023-04-16T08:20:38.177Z,4408.00
2023-04-16T08:21:38.127Z,4364.00
2023-04-16T08:22:38.201Z,4421.00
2023-04-16T08:23:38.851Z,4898.00
2023-04-16T08:24:38.135Z,4889.00
2023-04-16T08:25:38.104Z,5375.00
2023-04-16T08:26:38.060Z,5862.00
2023-04-16T08:27:38.067Z,6074.00
2023-04-16T08:28:38.075Z,6635.00
2023-04-16T08:29:38.070Z,6868.00
2023-04-16T08:30:38.052Z,6965.00
2023-04-16T08:31:38.062Z,7602.00
2023-04-16T08:32:38.048Z,7607.00
2023-04-16T08:33:38.007Z,6751.00
2023-04-16T08:34:38.000Z,6103.00
2023-04-16T08:35:37.948Z,4718.00
2023-04-16T08:36:37.960Z,4463.00
2023-04-16T08:37:37.944Z,4581.00
2023-04-16T08:38:37.932Z,6103.00
2023-04-16T08:39:37.927Z,5632.00
2023-04-16T08:40:37.916Z,4673.00
2023-04-16T08:41:37.878Z,5024.00
2023-04-16T08:42:37.873Z,5144.00
2023-04-16T08:43:37.867Z,4042.00
2023-04-16T08:44:37.866Z,4565.00
2023-04-16T08:45:37.823Z,4535.00
2023-04-16T08:46:37.986Z,4609.00
2023-04-16T08:47:37.872Z,4377.00
2023-04-16T08:48:37.777Z,4294.00
2023-04-16T08:49:37.779Z,4243.00
2023-04-16T08:50:37.753Z,4048.00
2023-04-16T08:51:37.763Z,3304.00
2023-04-16T08:52:37.739Z,3911.00
2023-04-16T08:53:37.714Z,3677.00
2023-04-16T08:54:37.735Z,3355.00
2023-04-16T08:55:37.702Z,3558.00
2023-04-16T08:56:37.699Z,4088.00
2023-04-16T08:57:37.664Z,4477.00
2023-04-16T08:58:37.662Z,4028.00
2023-04-16T08:59:37.685Z,3347.00
2023-04-16T09:00:37.649Z,3311.00
2023-04-16T09:01:37.706Z,3346.00
2023-04-16T09:02:37.962Z,3283.00
2023-04-16T09:03:37.826Z,3161.00
2023-04-16T09:04:37.664Z,3327.00
2023-04-16T09:05:37.579Z,3993.00
2023-04-16T09:06:37.543Z,3948.00
2023-04-16T09:07:37.551Z,4072.00
2023-04-16T09:08:37.589Z,3379.00
2023-04-16T09:09:37.534Z,3203.00
2023-04-16T09:10:37.597Z,4083.00
2023-04-16T09:11:37.471Z,4070.00
2023-04-16T09:12:37.470Z,3823.00
2023-04-16T09:13:37.465Z,3661.00
2023-04-16T09:14:37.466Z,4180.00
2023-04-16T09:15:37.427Z,4234.00
2023-04-16T09:16:37.440Z,3989.00
2023-04-16T09:17:37.450Z,3508.00
2023-04-16T09:18:37.379Z,3735.00
2023-04-16T09:19:37.423Z,3933.00
2023-04-16T09:20:37.347Z,3458.00
2023-04-16T09:21:37.366Z,3621.00
2023-04-16T09:22:37.349Z,4302.00
2023-04-16T09:23:37.321Z,4747.00
2023-04-16T09:24:37.329Z,4853.00
2023-04-16T09:25:37.356Z,5117.00
2023-04-16T09:26:37.272Z,5119.00
2023-04-16T09:27:37.263Z,5369.00
2023-04-16T09:28:37.241Z,4942.00
2023-04-16T09:29:37.261Z,5263.00
2023-04-16T09:30:37.254Z,5533.00
2023-04-16T09:31:37.228Z,5536.00
2023-04-16T09:32:37.234Z,5395.00
2023-04-16T09:33:37.177Z,5363.00
2023-04-16T09:34:37.161Z,5406.00
2023-04-16T09:35:37.173Z,5401.00
2023-04-16T09:36:37.194Z,5680.00
2023-04-16T09:37:37.128Z,5752.00
2023-04-16T09:38:37.114Z,5652.00
2023-04-16T09:39:37.097Z,5323.00
2023-04-16T09:40:37.111Z,4965.00
2023-04-16T09:41:37.122Z,4673.00
2023-04-16T09:42:37.095Z,4797.00
2023-04-16T09:43:37.048Z,4962.00
2023-04-16T09:44:37.066Z,4749.00
2023-04-16T09:45:37.062Z,4432.00
2023-04-16T09:46:37.032Z,3823.00
2023-04-16T09:47:37.037Z,3660.00
2023-04-16T09:48:37.014Z,3609.00
2023-04-16T09:49:36.959Z,3248.00
2023-04-16T09:50:36.966Z,3384.00
2023-04-16T09:51:36.961Z,3756.00
2023-04-16T09:52:36.917Z,4170.00
2023-04-16T09:53:36.922Z,3651.00
2023-04-16T09:54:36.899Z,3189.00
2023-04-16T09:55:36.921Z,2814.00
2023-04-16T09:56:36.888Z,2860.00
2023-04-16T09:57:36.874Z,3055.00
2023-04-16T09:58:36.875Z,2514.00
2023-04-16T09:59:36.833Z,2445.00
2023-04-16T10:00:36.860Z,2686.00
2023-04-16T10:01:36.866Z,2678.00
2023-04-16T10:02:36.828Z,2604.00
2023-04-16T10:03:37.224Z,2600.00
2023-04-16T10:04:36.782Z,2467.00
2023-04-16T10:05:36.773Z,2523.00
2023-04-16T10:06:36.754Z,2609.00
2023-04-16T10:07:36.743Z,2607.00
2023-04-16T10:08:36.737Z,2662.00
2023-04-16T10:09:43.187Z,2944.00
2023-04-16T10:10:36.716Z,3285.00
2023-04-16T10:11:36.663Z,3557.00
2023-04-16T10:12:36.640Z,3791.00
2023-04-16T10:13:36.645Z,3897.00
2023-04-16T10:14:36.622Z,3962.00
2023-04-16T10:15:36.640Z,3980.00
2023-04-16T10:16:36.622Z,3944.00
2023-04-16T10:17:36.636Z,4146.00
2023-04-16T10:18:36.565Z,4294.00
2023-04-16T10:19:36.564Z,4284.00
2023-04-16T10:20:36.619Z,4084.00
2023-04-16T10:21:36.530Z,4268.00
2023-04-16T10:22:36.512Z,4729.00
2023-04-16T10:23:36.503Z,4722.00
2023-04-16T10:24:36.495Z,4245.00
2023-04-16T10:25:36.493Z,3930.00
2023-04-16T10:26:36.465Z,3655.00
2023-04-16T10:27:36.441Z,4129.00
2023-04-16T10:28:36.475Z,3865.00
2023-04-16T10:29:36.424Z,3866.00
2023-04-16T10:30:36.459Z,3713.00
2023-04-16T10:31:36.399Z,4037.00
2023-04-16T10:32:36.467Z,4049.00
2023-04-16T10:33:36.467Z,3990.00
2023-04-16T10:34:36.358Z,4184.00
2023-04-16T10:35:36.336Z,4122.00
2023-04-16T10:36:36.344Z,4516.00
2023-04-16T10:37:36.306Z,5129.00
2023-04-16T10:38:36.297Z,4966.00
2023-04-16T10:39:36.280Z,4797.00
2023-04-16T10:40:36.280Z,4519.00
2023-04-16T10:41:36.294Z,4337.00
2023-04-16T10:42:36.261Z,4056.00
2023-04-16T10:43:36.230Z,4597.00
2023-04-16T10:44:36.222Z,4852.00
2023-04-16T10:45:36.208Z,4967.00
2023-04-16T10:46:36.315Z,4925.00
2023-04-16T10:47:36.192Z,4766.00
2023-04-16T10:48:48.669Z,5264.00
2023-04-16T10:49:36.151Z,5481.00
2023-04-16T10:50:36.136Z,5891.00
2023-04-16T10:51:36.157Z,5622.00
2023-04-16T10:52:36.133Z,5393.00
2023-04-16T10:53:36.092Z,5392.00
2023-04-16T10:54:36.085Z,5433.00
2023-04-16T10:55:36.069Z,5629.00
2023-04-16T10:56:36.107Z,6104.00
2023-04-16T10:57:36.038Z,6545.00
2023-04-16T10:58:36.037Z,6840.00
2023-04-16T10:59:36.014Z,6939.00
2023-04-16T11:00:36.024Z,6922.00
2023-04-16T11:01:36.055Z,7134.00
2023-04-16T11:02:36.281Z,7234.00
2023-04-16T11:03:36.093Z,7314.00
2023-04-16T11:04:36.155Z,7292.00
2023-04-16T11:05:35.982Z,7606.00
2023-04-16T11:06:35.926Z,7765.00
2023-04-16T11:07:35.988Z,7680.00
2023-04-16T11:08:44.283Z,7933.00
2023-04-16T11:09:35.900Z,7785.00
2023-04-16T11:10:35.989Z,7752.00
2023-04-16T11:11:35.848Z,7965.00
2023-04-16T11:12:35.862Z,7979.00
2023-04-16T11:13:35.850Z,8285.00
2023-04-16T11:14:35.821Z,8337.00
2023-04-16T11:15:35.841Z,8463.00
2023-04-16T11:16:35.791Z,8471.00
2023-04-16T11:17:35.832Z,8357.00
2023-04-16T11:18:35.770Z,8246.00
2023-04-16T11:19:35.753Z,8102.00
2023-04-16T11:20:35.760Z,8032.00
2023-04-16T11:21:35.713Z,7929.00
2023-04-16T11:22:35.710Z,7752.00
2023-04-16T11:23:35.692Z,7680.00
2023-04-16T11:24:35.737Z,7585.00
2023-04-16T11:25:35.716Z,7523.00
2023-04-16T11:26:35.671Z,7379.00
2023-04-16T11:27:35.635Z,7303.00
2023-04-16T11:28:35.631Z,7327.00
2023-04-16T11:29:35.624Z,7645.00
2023-04-16T11:30:35.610Z,7741.00
2023-04-16T11:31:35.649Z,7820.00
2023-04-16T11:32:35.589Z,7841.00
2023-04-16T11:33:35.556Z,7999.00
2023-04-16T11:34:35.577Z,7632.00
2023-04-16T11:35:35.560Z,7179.00
2023-04-16T11:36:35.525Z,7254.00
2023-04-16T11:37:35.504Z,7727.00
2023-04-16T11:38:35.500Z,7925.00
2023-04-16T11:39:35.480Z,7779.00
2023-04-16T11:40:35.519Z,7988.00
2023-04-16T11:41:35.457Z,9119.00
2023-04-16T11:42:35.467Z,9757.00
2023-04-16T11:43:35.450Z,9509.00
2023-04-16T11:44:35.413Z,8787.00
2023-04-16T11:45:35.420Z,8187.00
2023-04-16T11:46:35.419Z,8058.00
2023-04-16T11:47:35.425Z,8097.00
2023-04-16T11:48:35.364Z,7698.00
2023-04-16T11:49:35.355Z,6935.00
2023-04-16T11:50:35.364Z,6927.00
2023-04-16T11:51:35.343Z,7432.00
2023-04-16T11:52:35.313Z,7141.00
2023-04-16T11:53:35.301Z,6480.00
2023-04-16T11:54:35.286Z,6486.00
2023-04-16T11:55:35.279Z,6714.00
2023-04-16T11:56:35.252Z,6781.00
2023-04-16T11:57:35.249Z,6803.00
2023-04-16T11:58:35.225Z,6820.00
2023-04-16T11:59:35.210Z,5919.00
2023-04-16T12:00:35.222Z,5786.00
2023-04-16T12:01:35.192Z,6477.00
2023-04-16T12:02:35.323Z,6891.00
2023-04-16T12:03:35.313Z,6158.00
2023-04-16T12:04:35.193Z,5204.00
2023-04-16T12:05:35.172Z,5399.00
2023-04-16T12:06:35.140Z,5634.00
2023-04-16T12:07:35.103Z,5347.00
2023-04-16T12:08:35.096Z,4978.00
2023-04-16T12:09:36.461Z,4629.00
2023-04-16T12:10:35.165Z,4725.00
2023-04-16T12:11:35.049Z,4789.00
2023-04-16T12:12:35.040Z,5320.00
2023-04-16T12:13:35.028Z,6451.00
2023-04-16T12:14:35.023Z,7413.00
2023-04-16T12:15:35.026Z,7005.00
2023-04-16T12:16:35.888Z,6417.00
2023-04-16T12:17:35.081Z,6561.00
2023-04-16T12:18:34.965Z,6405.00
2023-04-16T12:19:34.953Z,6674.00
2023-04-16T12:20:34.945Z,7585.00
2023-04-16T12:21:34.946Z,9016.00
2023-04-16T12:22:36.805Z,8971.00
2023-04-16T12:23:34.892Z,9150.00
2023-04-16T12:24:34.931Z,8732.00
2023-04-16T12:25:34.897Z,8171.00
2023-04-16T12:26:34.916Z,7778.00
2023-04-16T12:27:34.845Z,7130.00
2023-04-16T12:28:34.843Z,6843.00
2023-04-16T12:29:34.814Z,7724.00
2023-04-16T12:30:34.852Z,8330.00
2023-04-16T12:31:34.805Z,8065.00
2023-04-16T12:32:34.873Z,8090.00
2023-04-16T12:33:34.766Z,8246.00